sensor_id;sensor_type;location;lat;lon;timestamp;P1;durP1;ratioP1;P2;durP2;ratioP2
67556;SDS011;54387;53.526;49.300;2023-07-24T00:00:37;4.15;;;2.97;;
67556;SDS011;54387;53.526;49.300;2023-07-24T00:03:05;3.22;;;2.80;;
67556;SDS011;54387;53.526;49.300;2023-07-24T00:05:32;6.75;;;3.38;;
67556;SDS011;54387;53.526;49.300;2023-07-24T00:07:58;6.15;;;3.22;;
67556;SDS011;54387;53.526;49.300;2023-07-24T00:10:24;3.85;;;3.03;;
67556;SDS011;54387;53.526;49.300;2023-07-24T00:12:50;5.45;;;2.95;;
67556;SDS011;54387;53.526;49.300;2023-07-24T00:15:16;5.15;;;3.28;;
67556;SDS011;54387;53.526;49.300;2023-07-24T00:17:43;4.45;;;3.22;;
67556;SDS011;54387;53.526;49.300;2023-07-24T00:20:09;3.78;;;3.00;;
67556;SDS011;54387;53.526;49.300;2023-07-24T00:22:35;4.72;;;3.47;;
67556;SDS011;54387;53.526;49.300;2023-07-24T00:25:02;5.65;;;3.35;;
67556;SDS011;54387;53.526;49.300;2023-07-24T00:27:31;3.92;;;3.10;;
67556;SDS011;54387;53.526;49.300;2023-07-24T00:29:57;5.22;;;3.50;;
67556;SDS011;54387;53.526;49.300;2023-07-24T00:32:23;4.55;;;3.55;;
67556;SDS011;54387;53.526;49.300;2023-07-24T00:34:49;4.35;;;3.58;;
67556;SDS011;54387;53.526;49.300;2023-07-24T00:37:15;5.47;;;3.65;;
67556;SDS011;54387;53.526;49.300;2023-07-24T00:39:41;4.78;;;3.47;;
67556;SDS011;54387;53.526;49.300;2023-07-24T00:42:08;3.95;;;3.55;;
67556;SDS011;54387;53.526;49.300;2023-07-24T00:44:34;6.03;;;3.78;;
67556;SDS011;54387;53.526;49.300;2023-07-24T00:47:00;6.07;;;3.55;;
67556;SDS011;54387;53.526;49.300;2023-07-24T00:49:26;3.92;;;3.53;;
67556;SDS011;54387;53.526;49.300;2023-07-24T00:51:53;4.05;;;3.50;;
67556;SDS011;54387;53.526;49.300;2023-07-24T00:54:19;4.60;;;3.85;;
67556;SDS011;54387;53.526;49.300;2023-07-24T00:56:47;4.50;;;3.60;;
67556;SDS011;54387;53.526;49.300;2023-07-24T00:59:14;6.25;;;3.50;;
67556;SDS011;54387;53.526;49.300;2023-07-24T01:01:41;5.22;;;3.95;;
67556;SDS011;54387;53.526;49.300;2023-07-24T01:04:08;4.10;;;3.70;;
67556;SDS011;54387;53.526;49.300;2023-07-24T01:06:34;5.65;;;3.65;;
67556;SDS011;54387;53.526;49.300;2023-07-24T01:09:00;4.28;;;3.70;;
67556;SDS011;54387;53.526;49.300;2023-07-24T01:14:07;4.28;;;3.88;;
67556;SDS011;54387;53.526;49.300;2023-07-24T01:16:41;4.95;;;3.53;;
67556;SDS011;54387;53.526;49.300;2023-07-24T01:25:31;5.95;;;3.92;;
67556;SDS011;54387;53.526;49.300;2023-07-24T01:27:41;4.78;;;3.42;;
67556;SDS011;54387;53.526;49.300;2023-07-24T01:30:08;3.67;;;3.28;;
67556;SDS011;54387;53.526;49.300;2023-07-24T01:32:35;5.22;;;3.60;;
67556;SDS011;54387;53.526;49.300;2023-07-24T01:35:01;5.55;;;3.95;;
67556;SDS011;54387;53.526;49.300;2023-07-24T01:37:28;6.13;;;3.78;;
67556;SDS011;54387;53.526;49.300;2023-07-24T01:39:56;6.07;;;3.40;;
67556;SDS011;54387;53.526;49.300;2023-07-24T01:42:22;4.28;;;3.75;;
67556;SDS011;54387;53.526;49.300;2023-07-24T01:44:53;7.25;;;4.13;;
67556;SDS011;54387;53.526;49.300;2023-07-24T01:47:20;8.00;;;4.15;;
67556;SDS011;54387;53.526;49.300;2023-07-24T01:49:47;4.72;;;3.95;;
67556;SDS011;54387;53.526;49.300;2023-07-24T01:52:13;5.07;;;3.90;;
67556;SDS011;54387;53.526;49.300;2023-07-24T01:54:41;5.60;;;3.92;;
67556;SDS011;54387;53.526;49.300;2023-07-24T01:57:07;6.15;;;3.58;;
67556;SDS011;54387;53.526;49.300;2023-07-24T01:59:34;4.10;;;3.70;;
67556;SDS011;54387;53.526;49.300;2023-07-24T02:02:00;5.20;;;4.25;;
67556;SDS011;54387;53.526;49.300;2023-07-24T02:04:26;5.40;;;3.95;;
67556;SDS011;54387;53.526;49.300;2023-07-24T02:06:52;4.13;;;3.72;;
67556;SDS011;54387;53.526;49.300;2023-07-24T02:09:18;4.03;;;3.63;;
67556;SDS011;54387;53.526;49.300;2023-07-24T02:11:45;5.85;;;4.07;;
67556;SDS011;54387;53.526;49.300;2023-07-24T02:14:11;4.78;;;4.30;;
67556;SDS011;54387;53.526;49.300;2023-07-24T02:16:39;4.97;;;3.80;;
67556;SDS011;54387;53.526;49.300;2023-07-24T02:19:05;4.35;;;3.47;;
67556;SDS011;54387;53.526;49.300;2023-07-24T02:21:32;5.03;;;3.45;;
67556;SDS011;54387;53.526;49.300;2023-07-24T02:23:58;5.75;;;4.10;;
67556;SDS011;54387;53.526;49.300;2023-07-24T02:26:24;4.80;;;4.03;;
67556;SDS011;54387;53.526;49.300;2023-07-24T02:28:51;4.47;;;3.60;;
67556;SDS011;54387;53.526;49.300;2023-07-24T02:31:19;5.25;;;3.80;;
67556;SDS011;54387;53.526;49.300;2023-07-24T02:33:45;6.03;;;4.15;;
67556;SDS011;54387;53.526;49.300;2023-07-24T02:36:11;4.97;;;3.80;;
67556;SDS011;54387;53.526;49.300;2023-07-24T02:38:37;5.00;;;4.00;;
67556;SDS011;54387;53.526;49.300;2023-07-24T02:41:03;4.80;;;3.42;;
67556;SDS011;54387;53.526;49.300;2023-07-24T02:43:30;5.00;;;3.58;;
67556;SDS011;54387;53.526;49.300;2023-07-24T02:45:59;4.72;;;3.60;;
67556;SDS011;54387;53.526;49.300;2023-07-24T02:48:27;4.80;;;3.53;;
67556;SDS011;54387;53.526;49.300;2023-07-24T02:50:53;4.00;;;3.60;;
67556;SDS011;54387;53.526;49.300;2023-07-24T02:53:20;5.07;;;3.28;;
67556;SDS011;54387;53.526;49.300;2023-07-24T02:55:46;5.35;;;3.70;;
67556;SDS011;54387;53.526;49.300;2023-07-24T02:58:13;5.00;;;3.60;;
67556;SDS011;54387;53.526;49.300;2023-07-24T03:00:39;5.05;;;3.33;;
67556;SDS011;54387;53.526;49.300;2023-07-24T03:03:06;4.25;;;3.30;;
67556;SDS011;54387;53.526;49.300;2023-07-24T03:05:35;4.38;;;3.65;;
67556;SDS011;54387;53.526;49.300;2023-07-24T03:08:01;5.25;;;3.25;;
67556;SDS011;54387;53.526;49.300;2023-07-24T03:10:27;4.63;;;3.30;;
67556;SDS011;54387;53.526;49.300;2023-07-24T03:12:53;4.68;;;3.40;;
67556;SDS011;54387;53.526;49.300;2023-07-24T03:15:20;5.20;;;3.50;;
67556;SDS011;54387;53.526;49.300;2023-07-24T03:17:47;3.80;;;3.50;;
67556;SDS011;54387;53.526;49.300;2023-07-24T03:20:16;4.18;;;3.33;;
67556;SDS011;54387;53.526;49.300;2023-07-24T03:22:44;4.43;;;3.13;;
67556;SDS011;54387;53.526;49.300;2023-07-24T03:25:11;4.45;;;3.58;;
67556;SDS011;54387;53.526;49.300;2023-07-24T03:27:38;5.82;;;3.47;;
67556;SDS011;54387;53.526;49.300;2023-07-24T03:30:05;4.47;;;3.03;;
67556;SDS011;54387;53.526;49.300;2023-07-24T03:32:31;5.57;;;3.50;;
67556;SDS011;54387;53.526;49.300;2023-07-24T03:34:58;5.47;;;3.55;;
67556;SDS011;54387;53.526;49.300;2023-07-24T03:37:24;4.38;;;3.78;;
67556;SDS011;54387;53.526;49.300;2023-07-24T03:39:50;5.97;;;3.88;;
67556;SDS011;54387;53.526;49.300;2023-07-24T03:42:24;5.43;;;3.50;;
67556;SDS011;54387;53.526;49.300;2023-07-24T03:44:54;5.40;;;3.67;;
67556;SDS011;54387;53.526;49.300;2023-07-24T03:47:21;5.07;;;3.40;;
67556;SDS011;54387;53.526;49.300;2023-07-24T03:49:48;5.55;;;3.40;;
67556;SDS011;54387;53.526;49.300;2023-07-24T03:52:15;4.35;;;3.63;;
67556;SDS011;54387;53.526;49.300;2023-07-24T03:54:41;4.53;;;3.63;;
67556;SDS011;54387;53.526;49.300;2023-07-24T03:57:07;5.20;;;3.50;;
67556;SDS011;54387;53.526;49.300;2023-07-24T03:59:34;4.40;;;3.38;;
67556;SDS011;54387;53.526;49.300;2023-07-24T04:02:01;4.40;;;3.00;;
67556;SDS011;54387;53.526;49.300;2023-07-24T04:04:27;5.97;;;3.10;;
67556;SDS011;54387;53.526;49.300;2023-07-24T04:06:53;5.38;;;3.45;;
67556;SDS011;54387;53.526;49.300;2023-07-24T04:09:20;4.15;;;3.20;;
67556;SDS011;54387;53.526;49.300;2023-07-24T04:11:46;3.53;;;3.03;;
67556;SDS011;54387;53.526;49.300;2023-07-24T04:14:12;4.20;;;3.28;;
67556;SDS011;54387;53.526;49.300;2023-07-24T04:16:38;3.97;;;3.40;;
67556;SDS011;54387;53.526;49.300;2023-07-24T04:19:04;6.15;;;3.47;;
67556;SDS011;54387;53.526;49.300;2023-07-24T04:21:31;5.90;;;3.50;;
67556;SDS011;54387;53.526;49.300;2023-07-24T04:23:57;4.45;;;3.50;;
67556;SDS011;54387;53.526;49.300;2023-07-24T04:26:23;5.78;;;3.75;;
67556;SDS011;54387;53.526;49.300;2023-07-24T04:28:50;5.75;;;3.92;;
67556;SDS011;54387;53.526;49.300;2023-07-24T04:31:16;5.63;;;3.65;;
67556;SDS011;54387;53.526;49.300;2023-07-24T04:33:43;5.07;;;3.83;;
67556;SDS011;54387;53.526;49.300;2023-07-24T04:36:09;5.60;;;3.75;;
67556;SDS011;54387;53.526;49.300;2023-07-24T04:38:35;5.47;;;3.60;;
67556;SDS011;54387;53.526;49.300;2023-07-24T04:41:01;5.93;;;3.67;;
67556;SDS011;54387;53.526;49.300;2023-07-24T04:43:31;8.63;;;5.22;;
67556;SDS011;54387;53.526;49.300;2023-07-24T04:45:57;6.95;;;3.90;;
67556;SDS011;54387;53.526;49.300;2023-07-24T04:48:24;4.60;;;3.63;;
67556;SDS011;54387;53.526;49.300;2023-07-24T04:50:56;4.85;;;3.72;;
67556;SDS011;54387;53.526;49.300;2023-07-24T04:53:22;4.90;;;3.70;;
67556;SDS011;54387;53.526;49.300;2023-07-24T04:55:49;4.47;;;4.00;;
67556;SDS011;54387;53.526;49.300;2023-07-24T04:58:15;4.20;;;3.50;;
67556;SDS011;54387;53.526;49.300;2023-07-24T05:00:41;6.35;;;3.70;;
67556;SDS011;54387;53.526;49.300;2023-07-24T05:03:07;7.22;;;3.58;;
67556;SDS011;54387;53.526;49.300;2023-07-24T05:05:36;5.18;;;4.13;;
67556;SDS011;54387;53.526;49.300;2023-07-24T05:08:04;5.72;;;3.38;;
67556;SDS011;54387;53.526;49.300;2023-07-24T05:10:35;6.22;;;3.65;;
67556;SDS011;54387;53.526;49.300;2023-07-24T05:13:01;6.03;;;3.40;;
67556;SDS011;54387;53.526;49.300;2023-07-24T05:15:27;5.45;;;3.58;;
67556;SDS011;54387;53.526;49.300;2023-07-24T05:17:54;5.10;;;3.50;;
67556;SDS011;54387;53.526;49.300;2023-07-24T05:20:20;5.68;;;3.72;;
67556;SDS011;54387;53.526;49.300;2023-07-24T05:22:46;3.70;;;3.25;;
67556;SDS011;54387;53.526;49.300;2023-07-24T05:25:13;4.88;;;3.40;;
67556;SDS011;54387;53.526;49.300;2023-07-24T05:27:39;4.65;;;3.38;;
67556;SDS011;54387;53.526;49.300;2023-07-24T05:30:05;4.97;;;3.88;;
67556;SDS011;54387;53.526;49.300;2023-07-24T05:32:32;3.17;;;2.88;;
67556;SDS011;54387;53.526;49.300;2023-07-24T05:34:58;4.00;;;3.17;;
67556;SDS011;54387;53.526;49.300;2023-07-24T05:37:24;5.60;;;3.63;;
67556;SDS011;54387;53.526;49.300;2023-07-24T05:39:50;6.53;;;4.10;;
67556;SDS011;54387;53.526;49.300;2023-07-24T05:42:17;4.68;;;3.88;;
67556;SDS011;54387;53.526;49.300;2023-07-24T05:44:43;4.28;;;3.85;;
67556;SDS011;54387;53.526;49.300;2023-07-24T05:47:09;4.93;;;3.90;;
67556;SDS011;54387;53.526;49.300;2023-07-24T05:49:38;6.25;;;4.32;;
67556;SDS011;54387;53.526;49.300;2023-07-24T05:52:04;5.63;;;4.45;;
67556;SDS011;54387;53.526;49.300;2023-07-24T05:54:31;5.07;;;4.15;;
67556;SDS011;54387;53.526;49.300;2023-07-24T05:56:57;6.30;;;4.20;;
67556;SDS011;54387;53.526;49.300;2023-07-24T05:59:23;4.82;;;3.92;;
67556;SDS011;54387;53.526;49.300;2023-07-24T06:01:49;5.55;;;4.35;;
67556;SDS011;54387;53.526;49.300;2023-07-24T06:04:15;7.43;;;4.72;;
67556;SDS011;54387;53.526;49.300;2023-07-24T06:06:43;4.50;;;4.10;;
67556;SDS011;54387;53.526;49.300;2023-07-24T06:09:09;5.40;;;4.57;;
67556;SDS011;54387;53.526;49.300;2023-07-24T06:11:35;7.05;;;4.40;;
67556;SDS011;54387;53.526;49.300;2023-07-24T06:14:01;5.97;;;4.20;;
67556;SDS011;54387;53.526;49.300;2023-07-24T06:16:27;4.57;;;4.18;;
67556;SDS011;54387;53.526;49.300;2023-07-24T06:18:54;5.00;;;4.22;;
67556;SDS011;54387;53.526;49.300;2023-07-24T06:21:20;5.07;;;4.30;;
67556;SDS011;54387;53.526;49.300;2023-07-24T06:23:46;5.63;;;4.43;;
67556;SDS011;54387;53.526;49.300;2023-07-24T06:26:13;5.13;;;3.55;;
67556;SDS011;54387;53.526;49.300;2023-07-24T06:28:39;5.82;;;3.15;;
67556;SDS011;54387;53.526;49.300;2023-07-24T06:31:05;5.18;;;3.45;;
67556;SDS011;54387;53.526;49.300;2023-07-24T06:33:31;5.18;;;3.30;;
67556;SDS011;54387;53.526;49.300;2023-07-24T06:35:57;4.07;;;3.45;;
67556;SDS011;54387;53.526;49.300;2023-07-24T06:38:24;4.10;;;3.70;;
67556;SDS011;54387;53.526;49.300;2023-07-24T06:40:50;4.22;;;3.83;;
67556;SDS011;54387;53.526;49.300;2023-07-24T06:43:16;5.75;;;3.30;;
67556;SDS011;54387;53.526;49.300;2023-07-24T06:45:42;3.90;;;3.38;;
67556;SDS011;54387;53.526;49.300;2023-07-24T06:48:08;3.53;;;3.22;;
67556;SDS011;54387;53.526;49.300;2023-07-24T06:50:34;6.97;;;3.72;;
67556;SDS011;54387;53.526;49.300;2023-07-24T06:53:01;5.75;;;3.70;;
67556;SDS011;54387;53.526;49.300;2023-07-24T06:55:27;3.63;;;2.90;;
67556;SDS011;54387;53.526;49.300;2023-07-24T06:57:53;4.43;;;2.97;;
67556;SDS011;54387;53.526;49.300;2023-07-24T07:00:20;3.72;;;2.90;;
67556;SDS011;54387;53.526;49.300;2023-07-24T07:02:46;6.97;;;2.80;;
67556;SDS011;54387;53.526;49.300;2023-07-24T07:05:12;2.83;;;2.50;;
67556;SDS011;54387;53.526;49.300;2023-07-24T07:07:42;3.30;;;2.55;;
67556;SDS011;54387;53.526;49.300;2023-07-24T07:10:08;4.20;;;2.80;;
67556;SDS011;54387;53.526;49.300;2023-07-24T07:12:35;5.60;;;2.63;;
67556;SDS011;54387;53.526;49.300;2023-07-24T07:15:01;4.63;;;2.53;;
67556;SDS011;54387;53.526;49.300;2023-07-24T07:17:28;2.50;;;2.30;;
67556;SDS011;54387;53.526;49.300;2023-07-24T07:19:54;2.45;;;2.22;;
67556;SDS011;54387;53.526;49.300;2023-07-24T07:22:21;3.92;;;2.60;;
67556;SDS011;54387;53.526;49.300;2023-07-24T07:24:49;3.83;;;2.70;;
67556;SDS011;54387;53.526;49.300;2023-07-24T07:27:15;3.88;;;2.38;;
67556;SDS011;54387;53.526;49.300;2023-07-24T07:29:44;3.85;;;2.58;;
67556;SDS011;54387;53.526;49.300;2023-07-24T07:32:10;2.30;;;2.10;;
67556;SDS011;54387;53.526;49.300;2023-07-24T07:34:37;3.33;;;2.60;;
67556;SDS011;54387;53.526;49.300;2023-07-24T07:37:04;3.58;;;2.40;;
67556;SDS011;54387;53.526;49.300;2023-07-24T07:39:31;3.97;;;2.35;;
67556;SDS011;54387;53.526;49.300;2023-07-24T07:41:58;6.18;;;2.45;;
67556;SDS011;54387;53.526;49.300;2023-07-24T07:44:24;3.83;;;2.30;;
67556;SDS011;54387;53.526;49.300;2023-07-24T07:46:50;3.00;;;2.10;;
67556;SDS011;54387;53.526;49.300;2023-07-24T07:49:16;2.50;;;2.20;;
67556;SDS011;54387;53.526;49.300;2023-07-24T07:51:43;2.78;;;2.20;;
67556;SDS011;54387;53.526;49.300;2023-07-24T07:54:09;2.60;;;2.40;;
67556;SDS011;54387;53.526;49.300;2023-07-24T07:56:35;3.20;;;2.33;;
67556;SDS011;54387;53.526;49.300;2023-07-24T07:59:01;3.47;;;2.20;;
67556;SDS011;54387;53.526;49.300;2023-07-24T08:01:27;5.25;;;2.10;;
67556;SDS011;54387;53.526;49.300;2023-07-24T08:03:53;4.70;;;2.20;;
67556;SDS011;54387;53.526;49.300;2023-07-24T08:06:20;3.85;;;2.20;;
67556;SDS011;54387;53.526;49.300;2023-07-24T08:08:47;4.85;;;2.10;;
67556;SDS011;54387;53.526;49.300;2023-07-24T08:11:13;2.65;;;2.28;;
67556;SDS011;54387;53.526;49.300;2023-07-24T08:13:40;2.50;;;1.88;;
67556;SDS011;54387;53.526;49.300;2023-07-24T08:16:12;6.30;;;2.15;;
67556;SDS011;54387;53.526;49.300;2023-07-24T08:18:45;4.00;;;2.33;;
67556;SDS011;54387;53.526;49.300;2023-07-24T08:21:13;2.60;;;2.10;;
67556;SDS011;54387;53.526;49.300;2023-07-24T08:23:40;2.38;;;2.17;;
67556;SDS011;54387;53.526;49.300;2023-07-24T08:26:07;2.55;;;2.10;;
67556;SDS011;54387;53.526;49.300;2023-07-24T08:28:34;3.03;;;2.35;;
67556;SDS011;54387;53.526;49.300;2023-07-24T08:31:00;2.92;;;2.42;;
67556;SDS011;54387;53.526;49.300;2023-07-24T08:33:27;3.85;;;2.42;;
67556;SDS011;54387;53.526;49.300;2023-07-24T08:36:00;2.65;;;2.35;;
67556;SDS011;54387;53.526;49.300;2023-07-24T08:38:28;3.83;;;2.20;;
67556;SDS011;54387;53.526;49.300;2023-07-24T08:41:08;2.70;;;2.50;;
67556;SDS011;54387;53.526;49.300;2023-07-24T08:43:36;6.78;;;2.50;;
67556;SDS011;54387;53.526;49.300;2023-07-24T08:46:03;2.65;;;2.35;;
67556;SDS011;54387;53.526;49.300;2023-07-24T08:48:32;2.40;;;2.20;;
67556;SDS011;54387;53.526;49.300;2023-07-24T08:51:01;2.42;;;2.20;;
67556;SDS011;54387;53.526;49.300;2023-07-24T08:53:29;2.45;;;2.25;;
67556;SDS011;54387;53.526;49.300;2023-07-24T08:55:59;2.03;;;1.80;;
67556;SDS011;54387;53.526;49.300;2023-07-24T08:58:27;3.15;;;2.47;;
67556;SDS011;54387;53.526;49.300;2023-07-24T09:00:53;2.40;;;2.17;;
67556;SDS011;54387;53.526;49.300;2023-07-24T09:03:22;3.75;;;2.60;;
67556;SDS011;54387;53.526;49.300;2023-07-24T09:05:50;4.53;;;2.35;;
67556;SDS011;54387;53.526;49.300;2023-07-24T09:08:27;3.20;;;2.15;;
67556;SDS011;54387;53.526;49.300;2023-07-24T09:11:01;3.45;;;2.15;;
67556;SDS011;54387;53.526;49.300;2023-07-24T09:13:28;4.05;;;2.20;;
67556;SDS011;54387;53.526;49.300;2023-07-24T09:15:55;2.42;;;2.13;;
67556;SDS011;54387;53.526;49.300;2023-07-24T09:18:22;6.70;;;2.30;;
67556;SDS011;54387;53.526;49.300;2023-07-24T09:20:49;2.28;;;1.75;;
67556;SDS011;54387;53.526;49.300;2023-07-24T09:23:15;2.28;;;2.05;;
67556;SDS011;54387;53.526;49.300;2023-07-24T09:25:51;2.65;;;2.05;;
67556;SDS011;54387;53.526;49.300;2023-07-24T09:28:17;3.70;;;2.25;;
67556;SDS011;54387;53.526;49.300;2023-07-24T09:30:54;3.60;;;2.22;;
67556;SDS011;54387;53.526;49.300;2023-07-24T09:33:34;3.95;;;2.22;;
67556;SDS011;54387;53.526;49.300;2023-07-24T09:36:02;3.40;;;1.90;;
67556;SDS011;54387;53.526;49.300;2023-07-24T09:38:30;2.58;;;2.10;;
67556;SDS011;54387;53.526;49.300;2023-07-24T09:40:57;3.03;;;1.90;;
67556;SDS011;54387;53.526;49.300;2023-07-24T09:43:24;6.35;;;2.10;;
67556;SDS011;54387;53.526;49.300;2023-07-24T09:45:53;1.83;;;1.70;;
67556;SDS011;54387;53.526;49.300;2023-07-24T09:48:21;2.38;;;1.90;;
67556;SDS011;54387;53.526;49.300;2023-07-24T09:50:53;2.38;;;2.00;;
67556;SDS011;54387;53.526;49.300;2023-07-24T09:56:06;2.97;;;1.77;;
67556;SDS011;54387;53.526;49.300;2023-07-24T09:58:38;2.75;;;1.58;;
67556;SDS011;54387;53.526;49.300;2023-07-24T10:01:07;1.77;;;1.67;;
67556;SDS011;54387;53.526;49.300;2023-07-24T10:03:35;1.83;;;1.60;;
67556;SDS011;54387;53.526;49.300;2023-07-24T10:06:03;3.85;;;1.80;;
67556;SDS011;54387;53.526;49.300;2023-07-24T10:08:30;2.42;;;1.80;;
67556;SDS011;54387;53.526;49.300;2023-07-24T10:11:00;3.22;;;1.90;;
67556;SDS011;54387;53.526;49.300;2023-07-24T10:13:27;3.20;;;1.98;;
67556;SDS011;54387;53.526;49.300;2023-07-24T10:15:54;2.75;;;1.88;;
67556;SDS011;54387;53.526;49.300;2023-07-24T10:18:25;2.67;;;1.77;;
67556;SDS011;54387;53.526;49.300;2023-07-24T10:21:06;2.17;;;1.70;;
67556;SDS011;54387;53.526;49.300;2023-07-24T10:23:34;1.60;;;1.50;;
67556;SDS011;54387;53.526;49.300;2023-07-24T10:26:06;1.67;;;1.58;;
67556;SDS011;54387;53.526;49.300;2023-07-24T10:28:34;1.67;;;1.58;;
67556;SDS011;54387;53.526;49.300;2023-07-24T10:31:06;1.73;;;1.60;;
67556;SDS011;54387;53.526;49.300;2023-07-24T10:33:36;1.48;;;1.38;;
67556;SDS011;54387;53.526;49.300;2023-07-24T10:36:09;1.63;;;1.50;;
67556;SDS011;54387;53.526;49.300;2023-07-24T10:38:39;3.40;;;1.60;;
67556;SDS011;54387;53.526;49.300;2023-07-24T10:41:07;3.75;;;1.98;;
67556;SDS011;54387;53.526;49.300;2023-07-24T10:46:07;5.55;;;2.03;;
67556;SDS011;54387;53.526;49.300;2023-07-24T10:48:33;5.50;;;2.10;;
67556;SDS011;54387;53.526;49.300;2023-07-24T10:51:05;3.33;;;2.35;;
67556;SDS011;54387;53.526;49.300;2023-07-24T10:53:34;4.82;;;2.50;;
67556;SDS011;54387;53.526;49.300;2023-07-24T10:56:02;4.72;;;3.20;;
67556;SDS011;54387;53.526;49.300;2023-07-24T10:58:28;6.10;;;3.15;;
67556;SDS011;54387;53.526;49.300;2023-07-24T11:00:55;4.10;;;2.20;;
67556;SDS011;54387;53.526;49.300;2023-07-24T11:03:21;3.78;;;2.70;;
67556;SDS011;54387;53.526;49.300;2023-07-24T11:05:49;4.00;;;2.28;;
67556;SDS011;54387;53.526;49.300;2023-07-24T11:08:16;3.40;;;2.10;;
67556;SDS011;54387;53.526;49.300;2023-07-24T11:10:48;2.53;;;1.88;;
67556;SDS011;54387;53.526;49.300;2023-07-24T11:13:16;2.38;;;2.17;;
67556;SDS011;54387;53.526;49.300;2023-07-24T11:15:43;4.05;;;2.15;;
67556;SDS011;54387;53.526;49.300;2023-07-24T11:18:09;3.40;;;2.10;;
67556;SDS011;54387;53.526;49.300;2023-07-24T11:20:37;2.35;;;1.98;;
67556;SDS011;54387;53.526;49.300;2023-07-24T11:23:08;4.47;;;1.88;;
67556;SDS011;54387;53.526;49.300;2023-07-24T11:25:36;1.85;;;1.60;;
67556;SDS011;54387;53.526;49.300;2023-07-24T11:28:06;2.85;;;1.85;;
67556;SDS011;54387;53.526;49.300;2023-07-24T11:30:33;5.22;;;1.90;;
67556;SDS011;54387;53.526;49.300;2023-07-24T11:33:00;3.90;;;1.90;;
67556;SDS011;54387;53.526;49.300;2023-07-24T11:35:29;5.35;;;2.10;;
67556;SDS011;54387;53.526;49.300;2023-07-24T11:37:55;2.72;;;1.95;;
67556;SDS011;54387;53.526;49.300;2023-07-24T11:40:29;2.05;;;1.70;;
67556;SDS011;54387;53.526;49.300;2023-07-24T11:43:15;3.83;;;2.30;;
67556;SDS011;54387;53.526;49.300;2023-07-24T11:45:46;2.72;;;2.20;;
67556;SDS011;54387;53.526;49.300;2023-07-24T11:48:20;2.67;;;2.00;;
67556;SDS011;54387;53.526;49.300;2023-07-24T11:50:50;3.20;;;1.75;;
67556;SDS011;54387;53.526;49.300;2023-07-24T11:55:55;2.53;;;1.88;;
67556;SDS011;54387;53.526;49.300;2023-07-24T11:58:26;3.30;;;2.92;;
67556;SDS011;54387;53.526;49.300;2023-07-24T12:00:53;2.47;;;1.65;;
67556;SDS011;54387;53.526;49.300;2023-07-24T12:03:20;2.22;;;1.60;;
67556;SDS011;54387;53.526;49.300;2023-07-24T12:05:51;2.78;;;1.70;;
67556;SDS011;54387;53.526;49.300;2023-07-24T12:08:19;3.63;;;1.83;;
67556;SDS011;54387;53.526;49.300;2023-07-24T12:10:49;2.58;;;1.35;;
67556;SDS011;54387;53.526;49.300;2023-07-24T12:13:15;3.45;;;2.28;;
67556;SDS011;54387;53.526;49.300;2023-07-24T12:15:41;2.17;;;1.60;;
67556;SDS011;54387;53.526;49.300;2023-07-24T12:18:07;2.85;;;1.60;;
67556;SDS011;54387;53.526;49.300;2023-07-24T12:20:34;1.33;;;1.20;;
67556;SDS011;54387;53.526;49.300;2023-07-24T12:23:00;2.22;;;1.35;;
67556;SDS011;54387;53.526;49.300;2023-07-24T12:25:27;2.65;;;1.48;;
67556;SDS011;54387;53.526;49.300;2023-07-24T12:27:53;4.65;;;2.17;;
67556;SDS011;54387;53.526;49.300;2023-07-24T12:30:19;4.18;;;1.67;;
67556;SDS011;54387;53.526;49.300;2023-07-24T12:32:46;3.97;;;1.83;;
67556;SDS011;54387;53.526;49.300;2023-07-24T12:35:12;2.13;;;1.60;;
67556;SDS011;54387;53.526;49.300;2023-07-24T12:37:39;2.53;;;1.90;;
67556;SDS011;54387;53.526;49.300;2023-07-24T12:40:05;3.58;;;1.60;;
67556;SDS011;54387;53.526;49.300;2023-07-24T12:42:32;3.15;;;1.85;;
67556;SDS011;54387;53.526;49.300;2023-07-24T12:44:58;3.63;;;1.30;;
67556;SDS011;54387;53.526;49.300;2023-07-24T12:47:24;2.47;;;1.88;;
67556;SDS011;54387;53.526;49.300;2023-07-24T12:49:51;3.13;;;1.17;;
67556;SDS011;54387;53.526;49.300;2023-07-24T12:52:21;2.70;;;1.45;;
67556;SDS011;54387;53.526;49.300;2023-07-24T12:54:47;3.65;;;1.60;;
67556;SDS011;54387;53.526;49.300;2023-07-24T12:57:13;2.85;;;1.80;;
67556;SDS011;54387;53.526;49.300;2023-07-24T12:59:39;2.60;;;1.83;;
67556;SDS011;54387;53.526;49.300;2023-07-24T13:02:05;2.45;;;1.70;;
67556;SDS011;54387;53.526;49.300;2023-07-24T13:04:32;7.03;;;2.10;;
67556;SDS011;54387;53.526;49.300;2023-07-24T13:06:58;4.13;;;2.10;;
67556;SDS011;54387;53.526;49.300;2023-07-24T13:09:25;3.83;;;2.45;;
67556;SDS011;54387;53.526;49.300;2023-07-24T13:11:53;3.90;;;2.10;;
67556;SDS011;54387;53.526;49.300;2023-07-24T13:14:20;2.67;;;2.10;;
67556;SDS011;54387;53.526;49.300;2023-07-24T13:16:46;5.30;;;2.20;;
67556;SDS011;54387;53.526;49.300;2023-07-24T13:19:13;2.30;;;1.98;;
67556;SDS011;54387;53.526;49.300;2023-07-24T13:21:39;6.13;;;2.30;;
67556;SDS011;54387;53.526;49.300;2023-07-24T13:24:06;3.92;;;2.20;;
67556;SDS011;54387;53.526;49.300;2023-07-24T13:26:33;5.25;;;1.85;;
67556;SDS011;54387;53.526;49.300;2023-07-24T13:28:59;3.55;;;1.92;;
67556;SDS011;54387;53.526;49.300;2023-07-24T13:31:25;4.75;;;1.75;;
67556;SDS011;54387;53.526;49.300;2023-07-24T13:33:53;3.53;;;2.00;;
67556;SDS011;54387;53.526;49.300;2023-07-24T13:36:20;3.65;;;2.03;;
67556;SDS011;54387;53.526;49.300;2023-07-24T13:38:46;7.40;;;2.00;;
67556;SDS011;54387;53.526;49.300;2023-07-24T13:41:13;5.88;;;2.15;;
67556;SDS011;54387;53.526;49.300;2023-07-24T13:43:39;3.08;;;2.05;;
67556;SDS011;54387;53.526;49.300;2023-07-24T13:46:05;3.28;;;1.80;;
67556;SDS011;54387;53.526;49.300;2023-07-24T13:48:33;3.72;;;1.70;;
67556;SDS011;54387;53.526;49.300;2023-07-24T13:50:59;4.32;;;2.03;;
67556;SDS011;54387;53.526;49.300;2023-07-24T13:53:26;2.90;;;1.80;;
67556;SDS011;54387;53.526;49.300;2023-07-24T13:55:53;3.65;;;1.80;;
67556;SDS011;54387;53.526;49.300;2023-07-24T13:58:19;2.05;;;1.70;;
67556;SDS011;54387;53.526;49.300;2023-07-24T14:00:45;4.57;;;2.17;;
67556;SDS011;54387;53.526;49.300;2023-07-24T14:03:11;3.47;;;2.25;;
67556;SDS011;54387;53.526;49.300;2023-07-24T14:05:38;3.45;;;2.00;;
67556;SDS011;54387;53.526;49.300;2023-07-24T14:08:04;4.35;;;1.85;;
67556;SDS011;54387;53.526;49.300;2023-07-24T14:10:32;2.78;;;1.90;;
67556;SDS011;54387;53.526;49.300;2023-07-24T14:12:59;6.43;;;1.65;;
67556;SDS011;54387;53.526;49.300;2023-07-24T14:15:25;2.40;;;1.52;;
67556;SDS011;54387;53.526;49.300;2023-07-24T14:17:51;4.93;;;1.88;;
67556;SDS011;54387;53.526;49.300;2023-07-24T14:20:17;4.75;;;1.67;;
67556;SDS011;54387;53.526;49.300;2023-07-24T14:22:43;1.80;;;1.63;;
67556;SDS011;54387;53.526;49.300;2023-07-24T14:25:10;5.43;;;2.40;;
67556;SDS011;54387;53.526;49.300;2023-07-24T14:27:36;3.33;;;1.50;;
67556;SDS011;54387;53.526;49.300;2023-07-24T14:30:03;1.80;;;1.60;;
67556;SDS011;54387;53.526;49.300;2023-07-24T14:32:30;4.07;;;1.42;;
67556;SDS011;54387;53.526;49.300;2023-07-24T14:34:58;3.92;;;1.83;;
67556;SDS011;54387;53.526;49.300;2023-07-24T14:37:24;4.25;;;1.50;;
67556;SDS011;54387;53.526;49.300;2023-07-24T14:39:50;2.67;;;1.75;;
67556;SDS011;54387;53.526;49.300;2023-07-24T14:42:16;1.90;;;1.52;;
67556;SDS011;54387;53.526;49.300;2023-07-24T14:44:43;2.33;;;1.67;;
67556;SDS011;54387;53.526;49.300;2023-07-24T14:47:09;3.08;;;1.75;;
67556;SDS011;54387;53.526;49.300;2023-07-24T14:49:35;2.40;;;1.42;;